createdAt,value
2024-05-09T00:01:37.556Z,11.09
2024-05-09T00:06:39.308Z,10.96
2024-05-09T00:11:41.096Z,10.74
2024-05-09T00:16:43.387Z,10.59
2024-05-09T00:21:45.129Z,10.48
2024-05-09T00:26:46.804Z,10.38
2024-05-09T00:31:48.642Z,10.34
2024-05-09T00:36:51.043Z,10.29
2024-05-09T00:41:52.772Z,10.33
2024-05-09T00:46:56.142Z,10.26
2024-05-09T00:51:57.969Z,10.17
2024-05-09T00:56:59.983Z,10.13
2024-05-09T01:02:01.827Z,10.13
2024-05-09T01:07:03.664Z,9.98
2024-05-09T01:12:05.779Z,9.85
2024-05-09T01:17:07.795Z,9.71
2024-05-09T01:22:09.935Z,9.56
2024-05-09T01:27:11.615Z,9.43
2024-05-09T01:32:13.524Z,9.36
2024-05-09T01:37:15.279Z,9.26
2024-05-09T01:42:17.294Z,9.14
2024-05-09T01:47:19.137Z,9.06
2024-05-09T01:52:20.838Z,8.95
2024-05-09T01:57:22.624Z,8.80
2024-05-09T02:02:25.468Z,8.68
2024-05-09T02:07:27.254Z,8.58
2024-05-09T02:12:29.124Z,8.52
2024-05-09T02:17:32.601Z,8.47
2024-05-09T02:22:34.582Z,8.47
2024-05-09T02:27:36.403Z,8.42
2024-05-09T02:32:38.336Z,8.36
2024-05-09T02:37:40.159Z,8.30
2024-05-09T02:42:41.873Z,8.28
2024-05-09T02:47:43.911Z,8.41
2024-05-09T02:52:45.951Z,8.40
2024-05-09T02:57:47.983Z,8.34
2024-05-09T03:02:49.846Z,8.24
2024-05-09T03:07:51.761Z,8.12
2024-05-09T03:12:53.497Z,8.02
2024-05-09T03:17:55.288Z,7.98
2024-05-09T03:22:57.263Z,7.90
2024-05-09T03:27:59.503Z,7.89
2024-05-09T03:33:01.356Z,7.84
2024-05-09T03:38:03.220Z,7.82
2024-05-09T03:43:05.004Z,7.74
2024-05-09T03:48:07.317Z,7.68
2024-05-09T03:53:13.154Z,7.59
2024-05-09T03:58:15.096Z,7.61
2024-05-09T04:03:17.035Z,7.59
2024-05-09T04:08:18.986Z,7.55
2024-05-09T04:13:20.782Z,7.55
2024-05-09T04:18:22.548Z,7.65
2024-05-09T04:23:24.422Z,7.75
2024-05-09T04:28:26.376Z,7.87
2024-05-09T04:33:28.287Z,7.98
2024-05-09T04:38:30.360Z,8.15
2024-05-09T04:43:33.319Z,8.33
2024-05-09T04:48:35.077Z,8.45
2024-05-09T04:53:37.102Z,8.57
2024-05-09T04:58:39.076Z,8.59
2024-05-09T05:03:40.998Z,8.76
2024-05-09T05:08:42.869Z,8.99
2024-05-09T05:13:44.727Z,9.35
2024-05-09T05:18:46.718Z,10.08
2024-05-09T05:23:48.591Z,11.24
2024-05-09T05:28:50.972Z,12.61
2024-05-09T05:33:52.816Z,14.14
2024-05-09T05:38:54.596Z,15.86
2024-05-09T05:43:56.336Z,16.59
2024-05-09T05:48:58.133Z,16.62
2024-05-09T05:53:59.841Z,16.18
2024-05-09T05:59:01.744Z,17.84
2024-05-09T06:04:03.544Z,18.93
2024-05-09T06:09:06.249Z,18.21
2024-05-09T06:14:08.955Z,18.05
2024-05-09T06:19:10.819Z,17.33
2024-05-09T06:24:12.997Z,16.60
2024-05-09T06:29:14.792Z,16.81
2024-05-09T06:34:18.851Z,18.03
2024-05-09T06:39:20.693Z,18.63
2024-05-09T06:44:22.821Z,17.70
2024-05-09T06:49:29.001Z,17.52
2024-05-09T06:54:31.192Z,18.43
2024-05-09T06:59:33.027Z,17.93
2024-05-09T07:04:35.102Z,16.72
2024-05-09T07:09:37.448Z,16.90
2024-05-09T07:14:39.253Z,16.57
2024-05-09T07:19:41.549Z,16.67
2024-05-09T07:24:43.297Z,16.79
2024-05-09T07:29:45.075Z,16.40
2024-05-09T07:34:46.793Z,16.64
2024-05-09T07:39:48.569Z,17.44
2024-05-09T07:44:50.353Z,17.68
2024-05-09T07:51:32.803Z,17.48
2024-05-09T07:55:13.889Z,17.61
2024-05-09T08:00:20.404Z,17.67
2024-05-09T08:05:28.742Z,17.33
2024-05-09T08:10:30.588Z,17.27
2024-05-09T08:15:32.687Z,17.09
2024-05-09T08:20:39.544Z,17.33
2024-05-09T08:25:41.142Z,17.33
2024-05-09T08:30:43.157Z,17.19
2024-05-09T08:35:45.037Z,16.71
2024-05-09T08:40:47.137Z,16.52
2024-05-09T08:45:49.671Z,16.68
2024-05-09T08:50:54.893Z,16.93
2024-05-09T08:56:01.274Z,17.27
2024-05-09T09:01:04.410Z,17.83
2024-05-09T09:06:12.328Z,18.44
2024-05-09T09:11:14.181Z,18.68
2024-05-09T09:16:17.150Z,18.64
2024-05-09T09:21:18.927Z,19.13
2024-05-09T09:26:20.622Z,19.37
2024-05-09T09:31:22.398Z,18.69
2024-05-09T09:36:28.192Z,18.57
2024-05-09T09:41:30.593Z,17.80
2024-05-09T09:46:32.514Z,17.57
2024-05-09T09:51:35.567Z,17.03
2024-05-09T09:56:39.356Z,17.21
2024-05-09T10:01:43.367Z,17.43
2024-05-09T10:06:57.985Z,17.96
2024-05-09T10:12:13.622Z,18.03
2024-05-09T10:17:16.888Z,18.51
2024-05-09T10:22:28.698Z,18.74
2024-05-09T10:27:31.157Z,18.44
2024-05-09T10:32:40.359Z,17.84
2024-05-09T10:37:42.117Z,17.79
2024-05-09T10:42:44.170Z,17.67
2024-05-09T10:47:46.049Z,17.45
2024-05-09T10:52:48.123Z,17.33
2024-05-09T10:57:50.204Z,17.82
2024-05-09T11:02:55.855Z,18.13
2024-05-09T11:07:57.661Z,17.37
2024-05-09T11:12:59.497Z,17.23
2024-05-09T11:18:01.341Z,17.26
2024-05-09T11:23:06.823Z,17.87
2024-05-09T11:28:08.479Z,18.41
2024-05-09T11:33:15.010Z,18.72
2024-05-09T11:38:16.741Z,18.38
2024-05-09T11:43:18.576Z,18.19
2024-05-09T11:48:20.399Z,18.25
2024-05-09T11:53:22.386Z,18.23
2024-05-09T11:58:24.127Z,18.19
2024-05-09T12:03:25.854Z,18.47
2024-05-09T12:08:27.642Z,18.83
2024-05-09T12:13:29.438Z,19.07
2024-05-09T12:18:31.578Z,18.92
2024-05-09T12:23:33.334Z,18.95
2024-05-09T12:28:34.994Z,19.23
2024-05-09T12:33:36.873Z,18.49
2024-05-09T12:38:38.625Z,18.21
2024-05-09T12:43:40.292Z,18.29
2024-05-09T12:48:42.123Z,18.46
2024-05-09T12:53:43.897Z,18.54
2024-05-09T12:58:45.651Z,18.21
2024-05-09T13:03:47.561Z,18.23
2024-05-09T13:08:49.405Z,18.28
2024-05-09T13:13:51.091Z,18.15
2024-05-09T13:18:52.862Z,18.13
2024-05-09T13:23:56.195Z,18.24
2024-05-09T13:28:58.566Z,18.40
2024-05-09T13:34:00.389Z,18.41
2024-05-09T13:39:02.359Z,18.67
2024-05-09T13:44:04.131Z,18.72
2024-05-09T13:49:07.134Z,18.94
2024-05-09T13:54:10.241Z,19.21
2024-05-09T13:59:11.992Z,19.09
2024-05-09T14:04:14.051Z,19.03
2024-05-09T14:09:16.175Z,19.02
2024-05-09T14:14:17.891Z,19.15
2024-05-09T14:19:19.697Z,19.31
2024-05-09T14:24:21.505Z,19.70
2024-05-09T14:29:23.174Z,19.96
2024-05-09T14:34:25.152Z,19.83
2024-05-09T14:39:27.013Z,19.44
2024-05-09T14:44:28.713Z,19.34
2024-05-09T14:49:31.228Z,19.33
2024-05-09T14:54:32.997Z,19.11
2024-05-09T14:59:34.740Z,19.02
2024-05-09T15:04:36.783Z,18.92
2024-05-09T15:09:38.932Z,18.76
2024-05-09T15:14:40.694Z,18.67
2024-05-09T15:19:45.147Z,18.83
2024-05-09T15:24:47.861Z,18.83
2024-05-09T15:29:49.574Z,18.97
2024-05-09T15:34:51.257Z,19.06
2024-05-09T15:39:53.179Z,19.04
2024-05-09T15:44:54.951Z,19.01
2024-05-09T15:49:56.791Z,18.89
2024-05-09T15:54:58.665Z,18.85
2024-05-09T16:00:00.592Z,18.84
2024-05-09T16:05:02.567Z,18.84
2024-05-09T16:10:06.837Z,18.74
2024-05-09T16:15:08.860Z,18.69
2024-05-09T16:20:15.145Z,18.68
2024-05-09T16:25:20.157Z,18.67
2024-05-09T16:30:28.282Z,18.64
2024-05-09T16:35:37.886Z,18.60
2024-05-09T16:40:41.249Z,18.59
2024-05-09T16:45:44.758Z,18.56
2024-05-09T16:50:46.753Z,18.51
2024-05-09T16:55:48.641Z,18.41
2024-05-09T17:00:50.734Z,18.33
2024-05-09T17:05:52.827Z,18.26
2024-05-09T17:10:55.510Z,18.20
2024-05-09T17:15:57.542Z,18.13
2024-05-09T17:20:59.355Z,18.05
2024-05-09T17:26:01.274Z,17.96
2024-05-09T17:31:03.070Z,17.88
2024-05-09T17:36:04.985Z,17.80
2024-05-09T17:41:06.678Z,17.72
2024-05-09T17:46:08.468Z,17.66
2024-05-09T17:51:10.216Z,17.58
2024-05-09T17:56:11.995Z,17.49
2024-05-09T18:01:13.975Z,17.38
2024-05-09T18:06:16.693Z,17.27
2024-05-09T18:11:18.477Z,17.13
2024-05-09T18:16:20.513Z,16.96
2024-05-09T18:21:22.361Z,16.80
2024-05-09T18:26:24.033Z,16.62
2024-05-09T18:31:25.894Z,16.43
2024-05-09T18:36:27.714Z,16.26
2024-05-09T18:41:29.391Z,16.07
2024-05-09T18:46:31.361Z,15.92
2024-05-09T18:51:33.269Z,15.76
2024-05-09T18:56:36.973Z,15.61
2024-05-09T19:01:41.985Z,15.50
2024-05-09T19:06:45.216Z,15.38
2024-05-09T19:11:47.062Z,15.23
2024-05-09T19:16:48.919Z,15.11
2024-05-09T19:21:50.687Z,14.98
2024-05-09T19:26:52.612Z,14.86
2024-05-09T19:31:54.794Z,14.77
2024-05-09T19:36:56.660Z,14.67
2024-05-09T19:41:58.455Z,14.58
2024-05-09T19:47:00.316Z,14.52
2024-05-09T19:52:02.050Z,14.43
2024-05-09T19:57:04.038Z,14.35
2024-05-09T20:02:05.869Z,14.29
2024-05-09T20:07:07.761Z,14.25
2024-05-09T20:12:09.782Z,14.13
2024-05-09T20:17:14.324Z,14.09
2024-05-09T20:22:16.251Z,14.03
2024-05-09T20:27:18.073Z,13.94
2024-05-09T20:32:19.953Z,13.87
2024-05-09T20:37:21.972Z,13.85
2024-05-09T20:42:23.924Z,13.82
2024-05-09T20:47:25.741Z,13.73
2024-05-09T20:52:27.586Z,13.64
2024-05-09T20:57:29.316Z,13.52
2024-05-09T21:02:31.162Z,13.45
2024-05-09T21:07:32.997Z,13.40
2024-05-09T21:12:34.868Z,13.33
2024-05-09T21:17:36.700Z,13.24
2024-05-09T21:22:38.485Z,13.29
2024-05-09T21:27:40.508Z,13.22
2024-05-09T21:32:42.487Z,13.15
2024-05-09T21:37:44.376Z,13.01
2024-05-09T21:42:46.056Z,12.90
2024-05-09T21:47:47.895Z,12.83
2024-05-09T21:52:49.664Z,12.68
2024-05-09T21:57:51.374Z,12.54
2024-05-09T22:02:53.119Z,12.43
2024-05-09T22:07:54.977Z,12.33
2024-05-09T22:12:56.643Z,12.29
2024-05-09T22:17:58.486Z,12.25
2024-05-09T22:23:00.225Z,12.20
2024-05-09T22:28:02.813Z,12.14
2024-05-09T22:33:05.939Z,12.10
2024-05-09T22:38:07.862Z,12.09
2024-05-09T22:43:09.772Z,12.09
2024-05-09T22:48:11.897Z,12.03
2024-05-09T22:53:13.746Z,11.98
2024-05-09T22:58:15.621Z,11.90
2024-05-09T23:03:18.723Z,11.83
2024-05-09T23:08:20.543Z,11.79
2024-05-09T23:13:22.517Z,11.68
2024-05-09T23:18:24.410Z,11.58
2024-05-09T23:23:26.098Z,11.53
2024-05-09T23:28:27.902Z,11.43
2024-05-09T23:33:29.899Z,11.33
2024-05-09T23:38:31.609Z,11.25
2024-05-09T23:43:33.606Z,11.17
2024-05-09T23:48:39.098Z,11.11
2024-05-09T23:53:47.199Z,11.03
2024-05-09T23:58:48.908Z,10.94
